createdAt,value
2018-09-10T00:00:29.582Z,80.91
2018-09-10T00:02:56.515Z,79.84
2018-09-10T00:05:24.387Z,79.41
2018-09-10T00:07:52.151Z,78.71
2018-09-10T00:10:19.024Z,79.47
2018-09-10T00:12:45.978Z,80.67
2018-09-10T00:15:13.227Z,81.46
2018-09-10T00:17:40.191Z,82.46
2018-09-10T00:20:07.167Z,83.63
2018-09-10T00:22:34.107Z,83.16
2018-09-10T00:25:01.043Z,81.96
2018-09-10T00:27:28.056Z,81.71
2018-09-10T00:29:55.907Z,81.94
2018-09-10T00:32:23.051Z,81.97
2018-09-10T00:34:52.999Z,81.22
2018-09-10T00:37:19.950Z,80.27
2018-09-10T00:39:46.911Z,79.05
2018-09-10T00:42:13.876Z,79.88
2018-09-10T00:44:40.827Z,77.65
2018-09-10T00:47:07.788Z,78.35
2018-09-10T00:49:34.751Z,78.41
2018-09-10T00:52:01.624Z,79.20
2018-09-10T00:54:28.559Z,80.26
2018-09-10T00:56:55.511Z,79.97
2018-09-10T00:59:23.391Z,80.68
2018-09-10T01:01:50.364Z,80.70
2018-09-10T01:04:17.313Z,81.18
2018-09-10T01:06:44.255Z,81.21
2018-09-10T01:09:11.226Z,81.15
2018-09-10T01:11:38.678Z,81.14
2018-09-10T01:14:05.664Z,81.00
2018-09-10T01:16:32.584Z,80.64
2018-09-10T01:18:59.574Z,77.21
2018-09-10T01:21:26.503Z,79.32
2018-09-10T01:23:53.519Z,79.45
2018-09-10T01:26:20.467Z,80.43
2018-09-10T01:28:47.392Z,82.03
2018-09-10T01:31:14.367Z,83.38
2018-09-10T01:33:46.972Z,83.13
2018-09-10T01:36:13.898Z,82.54
2018-09-10T01:38:41.039Z,81.95
2018-09-10T01:41:08.015Z,81.85
2018-09-10T01:43:34.992Z,81.22
2018-09-10T01:46:02.123Z,81.50
2018-09-10T01:48:29.922Z,79.55
2018-09-10T01:50:56.940Z,81.25
2018-09-10T01:53:23.821Z,79.92
2018-09-10T01:55:50.686Z,80.31
2018-09-10T01:58:17.643Z,79.33
2018-09-10T02:00:44.599Z,79.87
2018-09-10T02:03:11.559Z,79.15
2018-09-10T02:05:38.480Z,79.87
2018-09-10T02:08:05.463Z,80.50
2018-09-10T02:10:32.422Z,79.30
2018-09-10T02:12:59.387Z,79.79
2018-09-10T02:15:27.364Z,80.15
2018-09-10T02:17:54.334Z,80.22
2018-09-10T02:20:21.328Z,79.93
2018-09-10T02:22:48.239Z,81.55
2018-09-10T02:25:15.193Z,79.97
2018-09-10T02:27:42.193Z,81.06
2018-09-10T02:30:09.943Z,81.38
2018-09-10T02:32:36.884Z,81.85
2018-09-10T02:35:03.767Z,81.57
2018-09-10T02:37:30.809Z,82.12
2018-09-10T02:39:57.730Z,81.88
2018-09-10T02:42:24.716Z,81.80
2018-09-10T02:44:51.679Z,81.67
2018-09-10T02:47:18.635Z,81.25
2018-09-10T02:49:45.563Z,81.44
2018-09-10T02:52:12.548Z,81.18
2018-09-10T02:54:39.534Z,81.19
2018-09-10T02:57:06.507Z,80.51
2018-09-10T02:59:33.450Z,81.23
2018-09-10T03:02:00.416Z,80.86
2018-09-10T03:04:27.352Z,82.66
2018-09-10T03:06:54.323Z,81.68
2018-09-10T03:09:21.272Z,81.24
2018-09-10T03:11:48.227Z,81.83
2018-09-10T03:14:15.177Z,82.06
2018-09-10T03:16:43.135Z,82.28
2018-09-10T03:19:10.127Z,82.21
2018-09-10T03:21:37.063Z,82.87
2018-09-10T03:24:04.042Z,83.28
2018-09-10T03:26:31.066Z,84.31
2018-09-10T03:28:58.068Z,85.30
2018-09-10T03:31:25.083Z,84.33
2018-09-10T03:33:51.980Z,84.53
2018-09-10T03:36:18.864Z,83.21
2018-09-10T03:38:45.858Z,83.24
2018-09-10T03:41:12.839Z,83.99
2018-09-10T03:43:39.759Z,82.39
2018-09-10T03:46:06.803Z,82.51
2018-09-10T03:48:33.759Z,81.59
2018-09-10T03:51:00.670Z,84.79
2018-09-10T03:53:27.593Z,84.62
2018-09-10T03:55:54.584Z,84.15
2018-09-10T03:58:21.535Z,82.49
2018-09-10T04:00:48.617Z,82.34
2018-09-10T04:03:15.585Z,82.10
2018-09-10T04:05:43.979Z,83.66
2018-09-10T04:08:10.911Z,82.53
2018-09-10T04:10:37.868Z,83.35
2018-09-10T04:13:04.822Z,84.71
2018-09-10T04:15:31.825Z,83.31
2018-09-10T04:17:58.711Z,82.72
2018-09-10T04:20:25.683Z,82.64
2018-09-10T04:22:52.627Z,83.23
2018-09-10T04:25:19.574Z,83.00
2018-09-10T04:27:46.575Z,80.18
2018-09-10T04:30:15.068Z,81.61
2018-09-10T04:32:42.003Z,82.04
2018-09-10T04:35:09.564Z,82.00
2018-09-10T04:37:36.971Z,81.41
2018-09-10T04:40:04.191Z,83.38
2018-09-10T04:42:31.072Z,83.79
2018-09-10T04:44:57.984Z,83.67
2018-09-10T04:47:25.023Z,83.52
2018-09-10T04:49:52.013Z,83.05
2018-09-10T04:52:18.964Z,83.03
2018-09-10T04:54:45.875Z,82.06
2018-09-10T04:57:12.799Z,83.11
2018-09-10T04:59:39.775Z,82.00
2018-09-10T05:02:06.723Z,84.56
2018-09-10T05:04:33.728Z,84.34
2018-09-10T05:07:00.632Z,86.99
2018-09-10T05:09:27.591Z,85.28
2018-09-10T05:11:54.536Z,84.57
2018-09-10T05:14:22.532Z,85.04
2018-09-10T05:16:50.535Z,83.90
2018-09-10T05:19:17.523Z,83.21
2018-09-10T05:21:44.437Z,84.44
2018-09-10T05:24:11.384Z,84.51
2018-09-10T05:26:38.345Z,83.29
2018-09-10T05:29:05.300Z,83.23
2018-09-10T05:31:32.259Z,82.96
2018-09-10T05:33:59.252Z,82.40
2018-09-10T05:36:26.164Z,81.80
2018-09-10T05:38:53.162Z,82.07
2018-09-10T05:41:20.084Z,80.53
2018-09-10T05:43:47.047Z,80.13
2018-09-10T05:46:14.050Z,80.81
2018-09-10T05:48:41.983Z,80.25
2018-09-10T05:51:08.943Z,79.40
2018-09-10T05:53:35.900Z,79.64
2018-09-10T05:56:02.844Z,81.14
2018-09-10T05:58:29.807Z,80.20
2018-09-10T06:00:56.776Z,81.81
2018-09-10T06:03:23.736Z,81.73
2018-09-10T06:05:50.679Z,81.43
2018-09-10T06:08:17.607Z,80.63
2018-09-10T06:10:44.708Z,80.38
2018-09-10T06:13:11.692Z,79.40
2018-09-10T06:15:38.619Z,78.96
2018-09-10T06:18:05.755Z,79.16
2018-09-10T06:20:33.506Z,79.48
2018-09-10T06:23:02.623Z,79.42
2018-09-10T06:25:30.138Z,78.53
2018-09-10T06:27:58.143Z,78.53
2018-09-10T06:30:25.141Z,76.66
2018-09-10T06:32:52.052Z,76.05
2018-09-10T06:35:19.179Z,75.72
2018-09-10T06:37:46.152Z,76.03
2018-09-10T06:40:13.112Z,74.35
2018-09-10T06:42:40.071Z,73.88
2018-09-10T06:45:07.671Z,72.16
2018-09-10T06:47:34.616Z,73.02
2018-09-10T06:50:01.593Z,73.19
2018-09-10T06:52:28.512Z,73.75
2018-09-10T06:54:55.473Z,74.07
2018-09-10T06:57:23.486Z,73.43
2018-09-10T06:59:50.468Z,72.59
2018-09-10T07:02:17.332Z,72.12
2018-09-10T07:04:44.295Z,71.96
2018-09-10T07:07:11.260Z,71.38
2018-09-10T07:09:38.239Z,71.42
2018-09-10T07:12:05.254Z,71.51
2018-09-10T07:14:32.155Z,71.42
2018-09-10T07:16:59.107Z,70.86
2018-09-10T07:19:26.078Z,69.86
2018-09-10T07:21:53.037Z,68.21
2018-09-10T07:24:19.955Z,67.99
2018-09-10T07:26:46.990Z,67.92
2018-09-10T07:29:13.859Z,68.80
2018-09-10T07:31:40.885Z,68.82
2018-09-10T07:34:07.822Z,68.17
2018-09-10T07:36:34.772Z,67.95
2018-09-10T07:39:01.729Z,66.85
2018-09-10T07:41:28.687Z,67.72
2018-09-10T07:43:55.726Z,67.67
2018-09-10T07:46:22.607Z,66.26
2018-09-10T07:48:49.603Z,66.77
2018-09-10T07:51:17.435Z,65.79
2018-09-10T07:53:44.364Z,66.24
2018-09-10T07:56:11.231Z,65.65
2018-09-10T07:58:38.212Z,65.73
2018-09-10T08:01:05.236Z,66.15
2018-09-10T08:03:32.267Z,64.55
2018-09-10T08:05:59.143Z,64.27
2018-09-10T08:08:26.135Z,63.70
2018-09-10T08:10:53.095Z,63.28
2018-09-10T08:13:20.070Z,63.48
2018-09-10T08:15:47.024Z,62.10
2018-09-10T08:18:13.976Z,62.50
2018-09-10T08:20:40.895Z,62.94
2018-09-10T08:23:07.879Z,61.72
2018-09-10T08:25:34.841Z,62.14
2018-09-10T08:28:01.841Z,61.07
2018-09-10T08:30:28.773Z,60.24
2018-09-10T08:32:56.728Z,58.00
2018-09-10T08:35:23.688Z,57.35
2018-09-10T08:37:50.550Z,58.64
2018-09-10T08:40:17.503Z,57.84
2018-09-10T08:42:44.508Z,56.54
2018-09-10T08:45:11.428Z,57.46
2018-09-10T08:47:38.380Z,57.90
2018-09-10T08:50:06.243Z,57.27
2018-09-10T08:52:33.098Z,57.94
2018-09-10T08:55:00.228Z,56.53
2018-09-10T08:57:27.747Z,56.70
2018-09-10T08:59:54.849Z,56.51
2018-09-10T09:02:21.898Z,57.26
2018-09-10T09:04:48.804Z,55.33
2018-09-10T09:07:15.780Z,54.33
2018-09-10T09:09:42.741Z,55.74
2018-09-10T09:12:09.747Z,54.89
2018-09-10T09:14:36.648Z,55.31
2018-09-10T09:17:03.635Z,53.74
2018-09-10T09:19:30.543Z,53.46
2018-09-10T09:21:57.538Z,52.54
2018-09-10T09:24:24.487Z,51.93
2018-09-10T09:26:51.415Z,50.41
2018-09-10T09:29:18.396Z,50.20
2018-09-10T09:31:45.372Z,51.09
2018-09-10T09:34:12.316Z,51.92
2018-09-10T09:36:45.007Z,51.88
2018-09-10T09:39:17.731Z,51.36
2018-09-10T09:41:50.371Z,50.22
2018-09-10T09:44:22.963Z,51.12
2018-09-10T09:46:49.939Z,49.11
2018-09-10T09:49:16.948Z,50.59
2018-09-10T09:51:43.860Z,49.70
2018-09-10T09:54:11.143Z,49.67
2018-09-10T09:56:38.154Z,49.21
2018-09-10T09:59:05.032Z,49.59
2018-09-10T10:01:37.808Z,48.10
2018-09-10T10:04:07.769Z,46.96
2018-09-10T10:06:35.379Z,47.55
2018-09-10T10:09:02.331Z,48.47
2018-09-10T10:11:29.227Z,47.94
2018-09-10T10:13:56.202Z,46.10
2018-09-10T10:16:23.234Z,45.83
2018-09-10T10:18:50.124Z,49.52
2018-09-10T10:21:17.082Z,45.98
2018-09-10T10:23:44.083Z,44.83
2018-09-10T10:26:11.027Z,43.81
2018-09-10T10:28:38.005Z,44.12
2018-09-10T10:31:05.134Z,43.56
2018-09-10T10:33:32.069Z,42.22
2018-09-10T10:35:59.022Z,41.05
2018-09-10T10:38:26.003Z,41.51
2018-09-10T10:40:52.948Z,41.56
2018-09-10T10:43:19.829Z,41.55
2018-09-10T10:45:46.736Z,41.74
2018-09-10T10:48:13.711Z,41.70
2018-09-10T10:50:40.706Z,42.90
2018-09-10T10:53:07.655Z,41.79
2018-09-10T10:55:34.583Z,42.23
2018-09-10T10:58:01.537Z,42.12
2018-09-10T11:00:28.512Z,41.96
2018-09-10T11:02:55.470Z,42.23
2018-09-10T11:05:22.471Z,42.80
2018-09-10T11:07:49.472Z,42.09
2018-09-10T11:10:16.440Z,41.26
2018-09-10T11:12:43.381Z,41.91
2018-09-10T11:15:10.346Z,40.21
2018-09-10T11:17:37.281Z,39.82
2018-09-10T11:20:04.716Z,40.15
2018-09-10T11:22:31.645Z,39.71
2018-09-10T11:24:58.581Z,39.53
2018-09-10T11:27:25.540Z,39.68
2018-09-10T11:29:52.540Z,38.86
2018-09-10T11:32:19.455Z,38.98
2018-09-10T11:34:46.576Z,39.21
2018-09-10T11:37:13.475Z,39.19
2018-09-10T11:39:40.555Z,39.04
2018-09-10T11:42:07.495Z,37.69
2018-09-10T11:44:34.643Z,36.98
2018-09-10T11:47:01.965Z,36.25
2018-09-10T11:49:28.851Z,37.04
2018-09-10T11:51:55.855Z,38.58
2018-09-10T11:54:22.788Z,35.93
2018-09-10T11:56:49.890Z,37.74
2018-09-10T11:59:16.932Z,37.67
2018-09-10T12:01:44.194Z,38.55
2018-09-10T12:04:11.199Z,37.25
2018-09-10T12:06:38.111Z,38.03
2018-09-10T12:09:06.311Z,37.61
2018-09-10T12:11:33.232Z,39.01
2018-09-10T12:14:00.188Z,37.26
2018-09-10T12:16:27.155Z,36.50
2018-09-10T12:18:54.079Z,36.90
2018-09-10T12:21:21.293Z,36.61
2018-09-10T12:23:48.216Z,35.09
2018-09-10T12:26:15.351Z,35.27
2018-09-10T12:28:42.387Z,35.11
2018-09-10T12:31:09.303Z,35.30
2018-09-10T12:33:36.510Z,34.08
2018-09-10T12:36:03.418Z,33.52
2018-09-10T12:38:30.387Z,33.81
2018-09-10T12:40:57.455Z,33.74
2018-09-10T12:43:25.364Z,33.73
2018-09-10T12:45:52.388Z,33.63
2018-09-10T12:48:19.327Z,34.20
2018-09-10T12:50:46.260Z,32.97
2018-09-10T12:53:13.247Z,33.36
2018-09-10T12:55:40.395Z,33.65
2018-09-10T12:58:07.391Z,33.70
2018-09-10T13:00:34.326Z,33.82
2018-09-10T13:03:01.383Z,34.08
2018-09-10T13:05:28.355Z,32.21
2018-09-10T13:07:55.409Z,33.43
2018-09-10T13:10:22.607Z,33.99
2018-09-10T13:12:49.541Z,33.30
2018-09-10T13:15:16.518Z,33.18
2018-09-10T13:17:43.443Z,33.05
2018-09-10T13:20:10.419Z,34.59
2018-09-10T13:22:37.351Z,33.23
2018-09-10T13:25:04.376Z,33.93
2018-09-10T13:27:31.379Z,33.24
2018-09-10T13:29:58.336Z,33.63
2018-09-10T13:32:25.305Z,33.36
2018-09-10T13:34:52.252Z,33.16
2018-09-10T13:37:19.201Z,32.40
2018-09-10T13:39:46.197Z,31.38
2018-09-10T13:42:13.111Z,31.12
2018-09-10T13:44:40.102Z,32.06
2018-09-10T13:47:07.109Z,32.17
2018-09-10T13:49:34.054Z,31.62
2018-09-10T13:52:00.950Z,32.41
2018-09-10T13:54:28.059Z,32.76
2018-09-10T13:56:55.071Z,33.06
2018-09-10T13:59:22.146Z,32.22
2018-09-10T14:01:49.090Z,32.56
2018-09-10T14:04:16.075Z,31.44
2018-09-10T14:06:43.063Z,32.84
2018-09-10T14:09:09.975Z,32.73
2018-09-10T14:11:37.408Z,33.16
2018-09-10T14:14:04.506Z,33.92
2018-09-10T14:16:31.427Z,32.94
2018-09-10T14:18:58.381Z,33.37
2018-09-10T14:21:25.283Z,33.35
2018-09-10T14:23:52.208Z,32.52
2018-09-10T14:26:19.135Z,31.67
2018-09-10T14:28:46.172Z,31.24
2018-09-10T14:31:13.101Z,32.16
2018-09-10T14:33:40.071Z,31.58
2018-09-10T14:36:06.975Z,30.98
2018-09-10T14:38:33.979Z,31.48
2018-09-10T14:41:00.923Z,30.85
2018-09-10T14:43:28.097Z,30.95
2018-09-10T14:45:55.039Z,31.23
2018-09-10T14:48:22.185Z,31.37
2018-09-10T14:50:49.193Z,31.18
2018-09-10T14:53:16.195Z,30.05
2018-09-10T14:55:43.171Z,30.31
2018-09-10T14:58:10.051Z,30.09
2018-09-10T15:00:37.009Z,29.00
2018-09-10T15:03:04.028Z,29.99
2018-09-10T15:05:31.047Z,30.23
2018-09-10T15:07:58.108Z,30.03
2018-09-10T15:10:25.031Z,30.41
2018-09-10T15:12:52.017Z,30.40
2018-09-10T15:15:18.946Z,30.01
2018-09-10T15:17:46.124Z,28.97
2018-09-10T15:20:13.032Z,29.04
2018-09-10T15:22:40.504Z,28.71
2018-09-10T15:25:07.517Z,28.78
2018-09-10T15:27:34.451Z,29.31
2018-09-10T15:30:01.375Z,29.55
2018-09-10T15:32:28.360Z,28.82
2018-09-10T15:34:55.358Z,29.44
2018-09-10T15:37:22.275Z,29.50
2018-09-10T15:39:49.240Z,29.48
2018-09-10T15:42:16.290Z,29.52
2018-09-10T15:44:43.247Z,29.57
2018-09-10T15:47:10.260Z,29.77
2018-09-10T15:49:37.272Z,30.61
2018-09-10T15:52:04.211Z,29.36
2018-09-10T15:54:31.348Z,29.66
2018-09-10T15:56:58.247Z,30.10
2018-09-10T15:59:25.192Z,30.62
2018-09-10T16:01:52.247Z,30.35
2018-09-10T16:04:19.213Z,31.39
2018-09-10T16:06:46.172Z,31.50
2018-09-10T16:09:13.127Z,31.21
2018-09-10T16:11:40.166Z,30.99
2018-09-10T16:14:07.123Z,30.58
2018-09-10T16:16:34.107Z,31.31
2018-09-10T16:19:01.351Z,30.99
2018-09-10T16:21:28.316Z,31.17
2018-09-10T16:23:55.276Z,31.86
2018-09-10T16:26:22.212Z,31.47
2018-09-10T16:28:49.192Z,31.05
2018-09-10T16:31:16.155Z,32.07
2018-09-10T16:33:43.160Z,31.04
2018-09-10T16:36:10.040Z,32.20
2018-09-10T16:38:37.041Z,32.39
2018-09-10T16:41:04.005Z,31.25
2018-09-10T16:43:30.981Z,32.57
2018-09-10T16:45:57.899Z,31.92
2018-09-10T16:48:24.970Z,32.49
2018-09-10T16:50:51.907Z,32.82
2018-09-10T16:53:18.873Z,33.13
2018-09-10T16:55:45.818Z,33.65
2018-09-10T16:58:12.779Z,33.35
2018-09-10T17:00:39.795Z,33.89
2018-09-10T17:03:06.719Z,33.56
2018-09-10T17:05:33.657Z,36.82
2018-09-10T17:08:00.891Z,37.61
2018-09-10T17:10:27.889Z,38.88
2018-09-10T17:12:54.835Z,40.20
2018-09-10T17:15:21.813Z,41.90
2018-09-10T17:17:48.747Z,41.88
2018-09-10T17:20:15.712Z,42.35
2018-09-10T17:22:42.683Z,42.87
2018-09-10T17:25:09.648Z,43.39
2018-09-10T17:27:36.578Z,42.72
2018-09-10T17:30:03.760Z,43.89
2018-09-10T17:32:30.695Z,44.39
2018-09-10T17:34:57.649Z,45.05
2018-09-10T17:37:24.604Z,45.10
2018-09-10T17:39:51.611Z,45.74
2018-09-10T17:42:18.595Z,46.64
2018-09-10T17:44:45.494Z,47.52
2018-09-10T17:47:12.638Z,47.17
2018-09-10T17:49:39.436Z,46.58
2018-09-10T17:52:06.335Z,46.71
2018-09-10T17:54:33.450Z,47.63
2018-09-10T17:57:00.400Z,47.52
2018-09-10T17:59:27.352Z,47.32
2018-09-10T18:01:55.184Z,48.30
2018-09-10T18:04:22.164Z,47.61
2018-09-10T18:06:49.131Z,48.57
2018-09-10T18:09:16.102Z,48.03
2018-09-10T18:11:45.075Z,47.79
2018-09-10T18:14:12.556Z,47.62
2018-09-10T18:16:45.966Z,47.97
2018-09-10T18:19:13.531Z,47.38
2018-09-10T18:21:40.501Z,48.47
2018-09-10T18:24:07.446Z,47.82
2018-09-10T18:26:34.432Z,47.40
2018-09-10T18:29:01.389Z,48.63
2018-09-10T18:31:28.331Z,49.59
2018-09-10T18:33:55.320Z,48.46
2018-09-10T18:36:22.211Z,48.09
2018-09-10T18:38:51.587Z,48.29
2018-09-10T18:41:29.405Z,48.00
2018-09-10T18:43:56.328Z,47.57
2018-09-10T18:46:23.255Z,49.34
2018-09-10T18:48:50.272Z,51.85
2018-09-10T18:51:17.175Z,50.22
2018-09-10T18:53:49.071Z,50.18
2018-09-10T18:56:16.047Z,51.12
2018-09-10T18:58:43.279Z,53.03
2018-09-10T19:01:12.447Z,53.21
2018-09-10T19:03:49.191Z,53.46
2018-09-10T19:06:21.090Z,55.02
2018-09-10T19:08:48.583Z,55.29
2018-09-10T19:11:20.099Z,56.00
2018-09-10T19:13:55.775Z,54.96
2018-09-10T19:16:24.569Z,54.75
2018-09-10T19:18:51.526Z,55.08
2018-09-10T19:21:19.451Z,53.91
2018-09-10T19:23:52.503Z,55.48
2018-09-10T19:26:25.499Z,54.04
2018-09-10T19:28:52.460Z,55.05
2018-09-10T19:31:20.292Z,54.87
2018-09-10T19:33:47.287Z,55.74
2018-09-10T19:36:14.275Z,55.25
2018-09-10T19:38:41.256Z,56.37
2018-09-10T19:41:08.148Z,56.44
2018-09-10T19:43:35.133Z,56.71
2018-09-10T19:46:02.126Z,56.25
2018-09-10T19:48:30.107Z,56.22
2018-09-10T19:50:57.069Z,57.26
2018-09-10T19:53:23.996Z,57.40
2018-09-10T19:55:50.996Z,56.85
2018-09-10T19:58:17.940Z,57.44
2018-09-10T20:00:44.843Z,57.24
2018-09-10T20:03:11.782Z,57.12
2018-09-10T20:05:38.756Z,56.63
2018-09-10T20:08:05.741Z,56.36
2018-09-10T20:10:32.744Z,57.20
2018-09-10T20:12:59.733Z,57.10
2018-09-10T20:15:29.855Z,58.57
2018-09-10T20:17:56.832Z,60.15
2018-09-10T20:20:23.805Z,62.89
2018-09-10T20:22:52.785Z,61.59
2018-09-10T20:25:25.991Z,60.84
2018-09-10T20:27:52.951Z,59.68
2018-09-10T20:30:23.720Z,59.87
2018-09-10T20:32:50.656Z,59.38
2018-09-10T20:37:56.659Z,60.55
2018-09-10T20:40:23.619Z,59.92
2018-09-10T20:42:58.361Z,59.52
2018-09-10T20:45:28.179Z,60.13
2018-09-10T20:47:55.095Z,59.78
2018-09-10T20:50:23.127Z,60.93
2018-09-10T20:52:51.131Z,60.06
2018-09-10T20:55:18.706Z,60.93
2018-09-10T20:57:45.603Z,61.70
2018-09-10T21:00:12.589Z,62.18
2018-09-10T21:02:39.551Z,63.05
2018-09-10T21:05:06.500Z,62.37
2018-09-10T21:07:33.489Z,62.87
2018-09-10T21:10:00.424Z,62.56
2018-09-10T21:12:27.393Z,62.25
2018-09-10T21:14:54.323Z,63.37
2018-09-10T21:17:21.298Z,64.23
2018-09-10T21:19:49.139Z,65.33
2018-09-10T21:22:16.119Z,65.00
2018-09-10T21:24:43.088Z,65.07
2018-09-10T21:27:12.111Z,65.05
2018-09-10T21:29:43.660Z,64.51
2018-09-10T21:32:10.683Z,64.18
2018-09-10T21:34:39.715Z,63.69
2018-09-10T21:37:07.187Z,64.91
2018-09-10T21:39:34.138Z,64.99
2018-09-10T21:42:01.314Z,64.13
2018-09-10T21:44:28.255Z,64.64
2018-09-10T21:46:55.236Z,64.67
2018-09-10T21:49:22.171Z,62.92
2018-09-10T21:51:50.196Z,65.73
2018-09-10T21:54:17.144Z,64.60
2018-09-10T21:57:00.780Z,65.24
2018-09-10T21:59:28.779Z,65.44
2018-09-10T22:01:56.755Z,66.28
2018-09-10T22:04:25.198Z,65.38
2018-09-10T22:06:55.177Z,66.72
2018-09-10T22:09:22.107Z,67.69
2018-09-10T22:11:54.715Z,66.69
2018-09-10T22:14:21.679Z,67.68
2018-09-10T22:16:50.616Z,68.78
2018-09-10T22:19:22.256Z,68.70
2018-09-10T22:21:49.183Z,69.32
2018-09-10T22:24:16.152Z,68.59
2018-09-10T22:26:45.160Z,68.11
2018-09-10T22:29:12.099Z,67.56
2018-09-10T22:31:39.063Z,67.82
2018-09-10T22:34:07.083Z,66.89
2018-09-10T22:36:34.855Z,66.42
2018-09-10T22:39:01.851Z,66.51
2018-09-10T22:41:28.834Z,66.50
2018-09-10T22:43:55.799Z,65.64
2018-09-10T22:46:22.779Z,66.37
2018-09-10T22:48:49.687Z,65.91
2018-09-10T22:51:18.083Z,65.71
2018-09-10T22:53:49.800Z,65.97
2018-09-10T22:56:16.703Z,66.19
2018-09-10T22:58:43.703Z,67.30
2018-09-10T23:01:10.654Z,67.26
2018-09-10T23:03:37.611Z,67.43
2018-09-10T23:06:04.593Z,67.20
2018-09-10T23:08:32.506Z,66.95
2018-09-10T23:11:02.382Z,67.89
2018-09-10T23:13:30.271Z,67.09
2018-09-10T23:15:57.224Z,68.32
2018-09-10T23:18:31.062Z,68.07
2018-09-10T23:20:58.020Z,70.36
2018-09-10T23:23:24.919Z,71.50
2018-09-10T23:25:57.431Z,71.27
2018-09-10T23:28:24.363Z,70.82
2018-09-10T23:30:53.391Z,72.75
2018-09-10T23:33:20.328Z,73.08
2018-09-10T23:35:47.330Z,72.17
2018-09-10T23:38:17.539Z,71.76
2018-09-10T23:40:44.474Z,71.83
2018-09-10T23:43:11.441Z,72.01
2018-09-10T23:45:38.438Z,72.06
2018-09-10T23:48:05.606Z,73.79
2018-09-10T23:50:32.627Z,75.30
2018-09-10T23:53:02.595Z,73.58
2018-09-10T23:55:29.515Z,73.41
2018-09-10T23:57:56.455Z,76.06
